Hoofdpagina
Satellietbeelden 15-daagse BerichtenKlimaatMaritieme meteorologie Cyclonen Bliksem VliegveldenFAQ Nieuwsbrief Over ons
Weer : Europa Afrika Noord-Amerika Zuid-Amerika Azië Australië-Oceanië Anderen
Talen Contact

Oostende, België

breedte: 51-12N, lengte: 002-52E, hoogte: 4 m


METAR: EBOS 250220Z 01008KT 1600 BR BKN004 12/10 Q1012 TEMPO SHRA
short-TAF: verouderd (36878 uren)
long-TAF: EBOS 241727Z 2418/2524 06008KT 9999 SCT030 PROB30 TEMPO 2422/2504 4000 SHRA PROB30 TEMPO 2504/2506 3000 BR

Uur: 04:49 (02:49 UTC)

Actueel weer

Dit bericht werd 29 minuten geleden gemaakt, om 02:20 UTC  
Wind 08 kt van noorden
Temperatuur 12°C
Vochtigheid 88%
Druk 1012 hPa
Zicht 1600 m
Gebroken wolken op een hoogte van 400 ft
nevel

Eenheden wisselen

Verwachting

Dit bericht werd 9 uren en 19 minuten geleden gemaakt, om 17:30 UTC  
Verwachting geldig van 24 om 18 UTC tot 25 om 24 UTC
Wind 08 kt van oost/noordoosten
Zicht 10 km of meer
Verspreide wolken op een hoogte van 3000 ft
Waarschijnlijkheid 30% :
Tijdelijke
van 24 om 22 UTC tot 25 om 04 UTC
Zicht 4000 m
regenbui
Waarschijnlijkheid 30% :
Tijdelijke
van 25 om 04 UTC tot 25 om 06 UTC
Zicht 3000 m
nevel
Voor de informatie op deze site gelden een verklaring van afwijzing van aansprakelijkheid
Weer : Europa Afrika Noord-Amerika Zuid-Amerika Azië Australië-Oceanië Anderen
Satellietbeelden 15-daagse BerichtenKlimaatMaritieme meteorologie Cyclonen Bliksem VliegveldenFAQ Talen Contact Nieuwsbrief Over ons